sensor_id;sensor_type;location;lat;lon;timestamp;temperature;humidity
67555;HTU21D;54385;53.516;49.456;2023-06-24T00:01:27;20.16;40.68
67555;HTU21D;54385;53.516;49.456;2023-06-24T00:03:53;20.16;40.67
67555;HTU21D;54385;53.516;49.456;2023-06-24T00:06:20;20.15;40.71
67555;HTU21D;54385;53.516;49.456;2023-06-24T00:08:48;20.14;40.69
67555;HTU21D;54385;53.516;49.456;2023-06-24T00:11:15;20.14;40.69
67555;HTU21D;54385;53.516;49.456;2023-06-24T00:13:42;20.16;40.68
67555;HTU21D;54385;53.516;49.456;2023-06-24T00:16:09;20.13;40.66
67555;HTU21D;54385;53.516;49.456;2023-06-24T00:18:37;20.14;40.65
67555;HTU21D;54385;53.516;49.456;2023-06-24T00:21:07;20.14;40.65
67555;HTU21D;54385;53.516;49.456;2023-06-24T00:23:33;20.14;40.64
67555;HTU21D;54385;53.516;49.456;2023-06-24T00:26:01;20.16;40.62
67555;HTU21D;54385;53.516;49.456;2023-06-24T00:28:27;20.14;40.60
67555;HTU21D;54385;53.516;49.456;2023-06-24T00:30:54;20.14;40.60
67555;HTU21D;54385;53.516;49.456;2023-06-24T00:33:20;20.14;40.59
67555;HTU21D;54385;53.516;49.456;2023-06-24T00:35:47;20.15;40.56
67555;HTU21D;54385;53.516;49.456;2023-06-24T00:38:14;20.16;40.55
67555;HTU21D;54385;53.516;49.456;2023-06-24T00:40:41;20.15;40.52
67555;HTU21D;54385;53.516;49.456;2023-06-24T00:43:08;20.17;40.48
67555;HTU21D;54385;53.516;49.456;2023-06-24T00:45:35;20.18;40.46
67555;HTU21D;54385;53.516;49.456;2023-06-24T00:48:01;20.19;40.41
67555;HTU21D;54385;53.516;49.456;2023-06-24T00:50:29;20.19;40.40
67555;HTU21D;54385;53.516;49.456;2023-06-24T00:52:55;20.21;40.36
67555;HTU21D;54385;53.516;49.456;2023-06-24T00:55:22;20.22;40.31
67555;HTU21D;54385;53.516;49.456;2023-06-24T00:57:52;20.25;40.29
67555;HTU21D;54385;53.516;49.456;2023-06-24T01:00:20;20.25;40.22
67555;HTU21D;54385;53.516;49.456;2023-06-24T01:02:49;20.27;40.16
67555;HTU21D;54385;53.516;49.456;2023-06-24T01:05:16;20.30;40.12
67555;HTU21D;54385;53.516;49.456;2023-06-24T01:07:43;20.31;40.06
67555;HTU21D;54385;53.516;49.456;2023-06-24T01:10:10;20.33;40.01
67555;HTU21D;54385;53.516;49.456;2023-06-24T01:12:39;20.34;39.98
67555;HTU21D;54385;53.516;49.456;2023-06-24T01:15:07;20.36;39.92
67555;HTU21D;54385;53.516;49.456;2023-06-24T01:17:58;20.40;39.88
67555;HTU21D;54385;53.516;49.456;2023-06-24T01:23:36;20.44;39.80
67555;HTU21D;54385;53.516;49.456;2023-06-24T01:31:49;20.49;39.62
67555;HTU21D;54385;53.516;49.456;2023-06-24T01:34:22;20.53;39.50
67555;HTU21D;54385;53.516;49.456;2023-06-24T01:37:14;20.56;39.46
67555;HTU21D;54385;53.516;49.456;2023-06-24T01:39:49;20.59;39.38
67555;HTU21D;54385;53.516;49.456;2023-06-24T01:42:18;20.62;39.28
67555;HTU21D;54385;53.516;49.456;2023-06-24T01:44:49;20.63;39.23
67555;HTU21D;54385;53.516;49.456;2023-06-24T01:47:22;20.66;39.17
67555;HTU21D;54385;53.516;49.456;2023-06-24T01:49:53;20.71;39.10
67555;HTU21D;54385;53.516;49.456;2023-06-24T01:52:23;20.76;39.01
67555;HTU21D;54385;53.516;49.456;2023-06-24T01:54:50;20.79;38.89
67555;HTU21D;54385;53.516;49.456;2023-06-24T01:57:19;20.83;38.79
67555;HTU21D;54385;53.516;49.456;2023-06-24T01:59:48;20.88;38.73
67555;HTU21D;54385;53.516;49.456;2023-06-24T02:02:18;20.91;38.63
67555;HTU21D;54385;53.516;49.456;2023-06-24T02:04:51;20.95;38.55
67555;HTU21D;54385;53.516;49.456;2023-06-24T02:07:20;20.99;38.44
67555;HTU21D;54385;53.516;49.456;2023-06-24T02:09:49;21.02;38.36
67555;HTU21D;54385;53.516;49.456;2023-06-24T02:12:17;21.06;38.29
67555;HTU21D;54385;53.516;49.456;2023-06-24T02:14:44;21.09;38.23
67555;HTU21D;54385;53.516;49.456;2023-06-24T02:17:12;21.11;38.14
67555;HTU21D;54385;53.516;49.456;2023-06-24T02:19:41;21.15;38.06
67555;HTU21D;54385;53.516;49.456;2023-06-24T02:22:09;21.17;38.01
67555;HTU21D;54385;53.516;49.456;2023-06-24T02:24:39;21.21;37.93
67555;HTU21D;54385;53.516;49.456;2023-06-24T02:27:27;21.25;37.84
67555;HTU21D;54385;53.516;49.456;2023-06-24T02:29:54;21.30;37.75
67555;HTU21D;54385;53.516;49.456;2023-06-24T02:32:21;21.34;37.69
67555;HTU21D;54385;53.516;49.456;2023-06-24T02:34:47;21.35;37.60
67555;HTU21D;54385;53.516;49.456;2023-06-24T02:37:14;21.40;37.50
67555;HTU21D;54385;53.516;49.456;2023-06-24T02:39:41;21.44;37.44
67555;HTU21D;54385;53.516;49.456;2023-06-24T02:42:10;21.47;37.33
67555;HTU21D;54385;53.516;49.456;2023-06-24T02:44:39;21.52;37.25
67555;HTU21D;54385;53.516;49.456;2023-06-24T02:47:08;21.55;37.16
67555;HTU21D;54385;53.516;49.456;2023-06-24T02:49:36;21.59;37.08
67555;HTU21D;54385;53.516;49.456;2023-06-24T02:52:09;21.62;37.04
67555;HTU21D;54385;53.516;49.456;2023-06-24T02:54:36;21.66;36.93
67555;HTU21D;54385;53.516;49.456;2023-06-24T02:57:08;21.69;36.87
67555;HTU21D;54385;53.516;49.456;2023-06-24T02:59:38;21.73;36.79
67555;HTU21D;54385;53.516;49.456;2023-06-24T03:02:05;21.78;36.70
67555;HTU21D;54385;53.516;49.456;2023-06-24T03:04:31;21.82;36.60
67555;HTU21D;54385;53.516;49.456;2023-06-24T03:06:59;21.85;36.50
67555;HTU21D;54385;53.516;49.456;2023-06-24T03:09:33;21.91;36.37
67555;HTU21D;54385;53.516;49.456;2023-06-24T03:12:03;21.94;36.33
67555;HTU21D;54385;53.516;49.456;2023-06-24T03:14:29;21.98;36.24
67555;HTU21D;54385;53.516;49.456;2023-06-24T03:16:56;22.04;36.14
67555;HTU21D;54385;53.516;49.456;2023-06-24T03:19:24;22.07;36.08
67555;HTU21D;54385;53.516;49.456;2023-06-24T03:21:50;22.10;35.97
67555;HTU21D;54385;53.516;49.456;2023-06-24T03:24:17;22.16;35.89
67555;HTU21D;54385;53.516;49.456;2023-06-24T03:26:43;22.19;35.84
67555;HTU21D;54385;53.516;49.456;2023-06-24T03:29:10;22.23;35.75
67555;HTU21D;54385;53.516;49.456;2023-06-24T03:31:37;22.26;35.67
67555;HTU21D;54385;53.516;49.456;2023-06-24T03:34:13;22.32;35.52
67555;HTU21D;54385;53.516;49.456;2023-06-24T03:36:40;22.37;35.45
67555;HTU21D;54385;53.516;49.456;2023-06-24T03:39:06;22.44;35.33
67555;HTU21D;54385;53.516;49.456;2023-06-24T03:41:33;22.49;35.20
67555;HTU21D;54385;53.516;49.456;2023-06-24T03:44:00;22.56;35.08
67555;HTU21D;54385;53.516;49.456;2023-06-24T03:46:27;22.63;34.96
67555;HTU21D;54385;53.516;49.456;2023-06-24T03:48:58;22.70;34.82
67555;HTU21D;54385;53.516;49.456;2023-06-24T03:51:26;22.78;34.68
67555;HTU21D;54385;53.516;49.456;2023-06-24T03:53:53;22.84;34.52
67555;HTU21D;54385;53.516;49.456;2023-06-24T03:56:24;22.93;34.37
67555;HTU21D;54385;53.516;49.456;2023-06-24T03:58:51;23.03;34.17
67555;HTU21D;54385;53.516;49.456;2023-06-24T04:01:17;23.15;33.92
67555;HTU21D;54385;53.516;49.456;2023-06-24T04:03:48;23.34;33.54
67555;HTU21D;54385;53.516;49.456;2023-06-24T04:06:14;23.52;33.29
67555;HTU21D;54385;53.516;49.456;2023-06-24T04:08:41;23.69;32.98
67555;HTU21D;54385;53.516;49.456;2023-06-24T04:11:09;23.83;32.70
67555;HTU21D;54385;53.516;49.456;2023-06-24T04:13:36;23.95;32.48
67555;HTU21D;54385;53.516;49.456;2023-06-24T04:16:02;24.05;32.28
67555;HTU21D;54385;53.516;49.456;2023-06-24T04:18:32;24.13;32.14
67555;HTU21D;54385;53.516;49.456;2023-06-24T04:20:59;24.21;31.98
67555;HTU21D;54385;53.516;49.456;2023-06-24T04:23:26;24.33;31.74
67555;HTU21D;54385;53.516;49.456;2023-06-24T04:25:52;24.40;31.63
67555;HTU21D;54385;53.516;49.456;2023-06-24T04:28:19;24.40;31.61
67555;HTU21D;54385;53.516;49.456;2023-06-24T04:30:46;24.42;31.57
67555;HTU21D;54385;53.516;49.456;2023-06-24T04:33:13;24.43;31.57
67555;HTU21D;54385;53.516;49.456;2023-06-24T04:35:39;24.48;31.45
67555;HTU21D;54385;53.516;49.456;2023-06-24T04:38:06;24.56;31.35
67555;HTU21D;54385;53.516;49.456;2023-06-24T04:40:36;24.66;31.15
67555;HTU21D;54385;53.516;49.456;2023-06-24T04:43:03;24.87;30.81
67555;HTU21D;54385;53.516;49.456;2023-06-24T04:45:30;25.09;30.42
67555;HTU21D;54385;53.516;49.456;2023-06-24T04:47:57;25.39;29.96
67555;HTU21D;54385;53.516;49.456;2023-06-24T04:50:24;25.72;29.48
67555;HTU21D;54385;53.516;49.456;2023-06-24T04:52:54;25.96;28.91
67555;HTU21D;54385;53.516;49.456;2023-06-24T04:55:24;26.09;28.77
67555;HTU21D;54385;53.516;49.456;2023-06-24T04:57:51;26.23;28.59
67555;HTU21D;54385;53.516;49.456;2023-06-24T05:00:18;26.27;28.51
67555;HTU21D;54385;53.516;49.456;2023-06-24T05:02:45;26.31;28.45
67555;HTU21D;54385;53.516;49.456;2023-06-24T05:05:18;26.28;28.45
67555;HTU21D;54385;53.516;49.456;2023-06-24T05:07:53;26.26;28.48
67555;HTU21D;54385;53.516;49.456;2023-06-24T05:10:20;26.27;28.45
67555;HTU21D;54385;53.516;49.456;2023-06-24T05:12:47;26.25;28.48
67555;HTU21D;54385;53.516;49.456;2023-06-24T05:15:13;26.31;28.39
67555;HTU21D;54385;53.516;49.456;2023-06-24T05:17:40;26.31;28.36
67555;HTU21D;54385;53.516;49.456;2023-06-24T05:20:08;26.33;28.31
67555;HTU21D;54385;53.516;49.456;2023-06-24T05:22:35;26.37;28.29
67555;HTU21D;54385;53.516;49.456;2023-06-24T05:25:05;26.37;28.23
67555;HTU21D;54385;53.516;49.456;2023-06-24T05:27:32;26.34;28.29
67555;HTU21D;54385;53.516;49.456;2023-06-24T05:30:02;26.30;28.19
67555;HTU21D;54385;53.516;49.456;2023-06-24T05:32:30;26.32;28.32
67555;HTU21D;54385;53.516;49.456;2023-06-24T05:34:56;26.32;28.32
67555;HTU21D;54385;53.516;49.456;2023-06-24T05:37:23;26.36;28.23
67555;HTU21D;54385;53.516;49.456;2023-06-24T05:39:50;26.31;28.30
67555;HTU21D;54385;53.516;49.456;2023-06-24T05:42:17;26.32;28.26
67555;HTU21D;54385;53.516;49.456;2023-06-24T05:44:44;26.32;28.32
67555;HTU21D;54385;53.516;49.456;2023-06-24T05:47:11;26.33;28.27
67555;HTU21D;54385;53.516;49.456;2023-06-24T05:49:40;26.34;28.25
67555;HTU21D;54385;53.516;49.456;2023-06-24T05:52:07;26.40;28.14
67555;HTU21D;54385;53.516;49.456;2023-06-24T05:54:33;26.48;28.00
67555;HTU21D;54385;53.516;49.456;2023-06-24T05:57:00;26.53;27.91
67555;HTU21D;54385;53.516;49.456;2023-06-24T05:59:27;26.57;27.86
67555;HTU21D;54385;53.516;49.456;2023-06-24T06:01:54;26.64;27.78
67555;HTU21D;54385;53.516;49.456;2023-06-24T06:04:21;26.70;27.71
67555;HTU21D;54385;53.516;49.456;2023-06-24T06:06:47;26.80;27.49
67555;HTU21D;54385;53.516;49.456;2023-06-24T06:09:14;26.94;27.32
67555;HTU21D;54385;53.516;49.456;2023-06-24T06:11:41;27.06;27.21
67555;HTU21D;54385;53.516;49.456;2023-06-24T06:14:08;27.17;27.03
67555;HTU21D;54385;53.516;49.456;2023-06-24T06:16:35;27.29;26.81
67555;HTU21D;54385;53.516;49.456;2023-06-24T06:19:02;27.39;26.74
67555;HTU21D;54385;53.516;49.456;2023-06-24T06:21:32;27.52;26.54
67555;HTU21D;54385;53.516;49.456;2023-06-24T06:23:59;27.61;26.36
67555;HTU21D;54385;53.516;49.456;2023-06-24T06:26:26;27.74;26.20
67555;HTU21D;54385;53.516;49.456;2023-06-24T06:28:53;27.89;25.96
67555;HTU21D;54385;53.516;49.456;2023-06-24T06:31:20;28.02;25.70
67555;HTU21D;54385;53.516;49.456;2023-06-24T06:33:47;28.17;25.53
67555;HTU21D;54385;53.516;49.456;2023-06-24T06:36:14;28.31;25.32
67555;HTU21D;54385;53.516;49.456;2023-06-24T06:38:41;28.43;25.13
67555;HTU21D;54385;53.516;49.456;2023-06-24T06:41:08;28.55;24.94
67555;HTU21D;54385;53.516;49.456;2023-06-24T06:43:39;28.68;24.75
67555;HTU21D;54385;53.516;49.456;2023-06-24T06:46:09;28.82;24.53
67555;HTU21D;54385;53.516;49.456;2023-06-24T06:48:36;28.97;24.32
67555;HTU21D;54385;53.516;49.456;2023-06-24T06:51:03;29.08;24.10
67555;HTU21D;54385;53.516;49.456;2023-06-24T06:53:30;29.21;23.97
67555;HTU21D;54385;53.516;49.456;2023-06-24T06:55:56;29.33;23.81
67555;HTU21D;54385;53.516;49.456;2023-06-24T06:58:25;29.47;23.62
67555;HTU21D;54385;53.516;49.456;2023-06-24T07:00:52;29.60;23.43
67555;HTU21D;54385;53.516;49.456;2023-06-24T07:03:22;29.66;23.31
67555;HTU21D;54385;53.516;49.456;2023-06-24T07:05:49;29.73;23.27
67555;HTU21D;54385;53.516;49.456;2023-06-24T07:08:15;29.78;23.14
67555;HTU21D;54385;53.516;49.456;2023-06-24T07:10:42;29.80;23.17
67555;HTU21D;54385;53.516;49.456;2023-06-24T07:13:09;29.82;23.04
67555;HTU21D;54385;53.516;49.456;2023-06-24T07:15:36;29.86;23.05
67555;HTU21D;54385;53.516;49.456;2023-06-24T07:18:03;29.86;23.02
67555;HTU21D;54385;53.516;49.456;2023-06-24T07:20:33;29.88;23.03
67555;HTU21D;54385;53.516;49.456;2023-06-24T07:23:03;29.89;23.04
67555;HTU21D;54385;53.516;49.456;2023-06-24T07:25:34;29.89;22.95
67555;HTU21D;54385;53.516;49.456;2023-06-24T07:28:04;29.92;22.95
67555;HTU21D;54385;53.516;49.456;2023-06-24T07:30:31;29.91;22.92
67555;HTU21D;54385;53.516;49.456;2023-06-24T07:32:58;29.93;22.95
67555;HTU21D;54385;53.516;49.456;2023-06-24T07:35:25;29.96;22.90
67555;HTU21D;54385;53.516;49.456;2023-06-24T07:37:52;30.03;22.76
67555;HTU21D;54385;53.516;49.456;2023-06-24T07:40:18;30.08;22.69
67555;HTU21D;54385;53.516;49.456;2023-06-24T07:42:45;30.15;22.61
67555;HTU21D;54385;53.516;49.456;2023-06-24T07:45:12;30.20;22.57
67555;HTU21D;54385;53.516;49.456;2023-06-24T07:47:39;30.23;22.46
67555;HTU21D;54385;53.516;49.456;2023-06-24T07:50:06;30.25;22.43
67555;HTU21D;54385;53.516;49.456;2023-06-24T07:52:36;30.26;22.50
67555;HTU21D;54385;53.516;49.456;2023-06-24T07:55:03;30.28;22.43
67555;HTU21D;54385;53.516;49.456;2023-06-24T07:57:37;30.35;22.36
67555;HTU21D;54385;53.516;49.456;2023-06-24T08:00:07;30.44;22.20
67555;HTU21D;54385;53.516;49.456;2023-06-24T08:02:37;30.52;22.11
67555;HTU21D;54385;53.516;49.456;2023-06-24T08:05:04;30.62;21.93
67555;HTU21D;54385;53.516;49.456;2023-06-24T08:07:31;30.70;21.90
67555;HTU21D;54385;53.516;49.456;2023-06-24T08:09:58;30.79;21.76
67555;HTU21D;54385;53.516;49.456;2023-06-24T08:12:29;30.85;21.68
67555;HTU21D;54385;53.516;49.456;2023-06-24T08:15:00;30.95;21.62
67555;HTU21D;54385;53.516;49.456;2023-06-24T08:17:31;30.97;21.55
67555;HTU21D;54385;53.516;49.456;2023-06-24T08:19:58;31.05;21.41
67555;HTU21D;54385;53.516;49.456;2023-06-24T08:22:25;31.14;21.40
67555;HTU21D;54385;53.516;49.456;2023-06-24T08:24:53;31.25;21.22
67555;HTU21D;54385;53.516;49.456;2023-06-24T08:27:20;31.36;21.07
67555;HTU21D;54385;53.516;49.456;2023-06-24T08:29:47;31.44;20.96
67555;HTU21D;54385;53.516;49.456;2023-06-24T08:32:14;31.53;20.86
67555;HTU21D;54385;53.516;49.456;2023-06-24T08:34:41;31.58;20.79
67555;HTU21D;54385;53.516;49.456;2023-06-24T08:37:09;31.60;20.74
67555;HTU21D;54385;53.516;49.456;2023-06-24T08:39:36;31.59;20.73
67555;HTU21D;54385;53.516;49.456;2023-06-24T08:42:05;31.56;20.82
67555;HTU21D;54385;53.516;49.456;2023-06-24T08:44:32;31.51;20.89
67555;HTU21D;54385;53.516;49.456;2023-06-24T08:47:03;31.53;20.87
67555;HTU21D;54385;53.516;49.456;2023-06-24T08:49:31;31.51;20.82
67555;HTU21D;54385;53.516;49.456;2023-06-24T08:52:08;31.48;20.89
67555;HTU21D;54385;53.516;49.456;2023-06-24T08:54:36;31.40;21.01
67555;HTU21D;54385;53.516;49.456;2023-06-24T08:57:05;31.24;21.19
67555;HTU21D;54385;53.516;49.456;2023-06-24T08:59:34;31.02;21.48
67555;HTU21D;54385;53.516;49.456;2023-06-24T09:02:02;30.79;21.79
67555;HTU21D;54385;53.516;49.456;2023-06-24T09:04:29;30.55;22.09
67555;HTU21D;54385;53.516;49.456;2023-06-24T09:06:56;30.38;22.37
67555;HTU21D;54385;53.516;49.456;2023-06-24T09:09:24;30.27;22.51
67555;HTU21D;54385;53.516;49.456;2023-06-24T09:12:01;30.22;22.55
67555;HTU21D;54385;53.516;49.456;2023-06-24T09:14:29;30.19;22.61
67555;HTU21D;54385;53.516;49.456;2023-06-24T09:16:58;30.17;22.63
67555;HTU21D;54385;53.516;49.456;2023-06-24T09:19:29;30.13;22.72
67555;HTU21D;54385;53.516;49.456;2023-06-24T09:22:01;30.10;22.69
67555;HTU21D;54385;53.516;49.456;2023-06-24T09:24:30;30.07;22.88
67555;HTU21D;54385;53.516;49.456;2023-06-24T09:26:58;30.05;22.81
67555;HTU21D;54385;53.516;49.456;2023-06-24T09:29:27;30.04;22.79
67555;HTU21D;54385;53.516;49.456;2023-06-24T09:31:56;30.01;22.86
67555;HTU21D;54385;53.516;49.456;2023-06-24T09:34:31;29.97;22.88
67555;HTU21D;54385;53.516;49.456;2023-06-24T09:37:00;29.96;22.96
67555;HTU21D;54385;53.516;49.456;2023-06-24T09:39:28;29.95;22.93
67555;HTU21D;54385;53.516;49.456;2023-06-24T09:42:03;29.90;23.01
67555;HTU21D;54385;53.516;49.456;2023-06-24T09:44:34;29.78;23.13
67555;HTU21D;54385;53.516;49.456;2023-06-24T09:47:02;29.67;23.34
67555;HTU21D;54385;53.516;49.456;2023-06-24T09:49:32;29.58;23.43
67555;HTU21D;54385;53.516;49.456;2023-06-24T09:51:59;29.54;23.50
67555;HTU21D;54385;53.516;49.456;2023-06-24T09:54:28;29.52;23.53
67555;HTU21D;54385;53.516;49.456;2023-06-24T09:56:59;29.61;23.46
67555;HTU21D;54385;53.516;49.456;2023-06-24T09:59:28;29.77;23.26
67555;HTU21D;54385;53.516;49.456;2023-06-24T10:02:02;29.96;22.98
67555;HTU21D;54385;53.516;49.456;2023-06-24T10:04:33;30.18;22.64
67555;HTU21D;54385;53.516;49.456;2023-06-24T10:07:01;30.38;22.43
67555;HTU21D;54385;53.516;49.456;2023-06-24T10:09:29;30.54;22.16
67555;HTU21D;54385;53.516;49.456;2023-06-24T10:11:56;30.62;22.05
67555;HTU21D;54385;53.516;49.456;2023-06-24T10:14:23;30.64;22.02
67555;HTU21D;54385;53.516;49.456;2023-06-24T10:16:51;30.59;22.08
67555;HTU21D;54385;53.516;49.456;2023-06-24T10:19:21;30.53;22.13
67555;HTU21D;54385;53.516;49.456;2023-06-24T10:21:52;30.48;22.19
67555;HTU21D;54385;53.516;49.456;2023-06-24T10:24:30;30.45;22.16
67555;HTU21D;54385;53.516;49.456;2023-06-24T10:27:13;30.50;22.13
67555;HTU21D;54385;53.516;49.456;2023-06-24T10:29:45;30.54;22.06
67555;HTU21D;54385;53.516;49.456;2023-06-24T10:32:16;30.61;22.03
67555;HTU21D;54385;53.516;49.456;2023-06-24T10:34:45;30.71;21.78
67555;HTU21D;54385;53.516;49.456;2023-06-24T10:37:26;30.82;21.69
67555;HTU21D;54385;53.516;49.456;2023-06-24T10:40:01;30.90;21.60
67555;HTU21D;54385;53.516;49.456;2023-06-24T10:42:41;30.92;21.50
67555;HTU21D;54385;53.516;49.456;2023-06-24T10:47:37;30.77;21.70
67555;HTU21D;54385;53.516;49.456;2023-06-24T10:50:06;30.66;21.83
67555;HTU21D;54385;53.516;49.456;2023-06-24T10:52:41;30.62;21.85
67555;HTU21D;54385;53.516;49.456;2023-06-24T10:55:09;30.53;21.98
67555;HTU21D;54385;53.516;49.456;2023-06-24T10:57:36;30.45;22.01
67555;HTU21D;54385;53.516;49.456;2023-06-24T11:00:04;30.33;22.22
67555;HTU21D;54385;53.516;49.456;2023-06-24T11:02:31;30.21;22.40
67555;HTU21D;54385;53.516;49.456;2023-06-24T11:05:00;30.02;22.63
67555;HTU21D;54385;53.516;49.456;2023-06-24T11:07:30;29.81;22.90
67555;HTU21D;54385;53.516;49.456;2023-06-24T11:12:31;29.59;23.20
67555;HTU21D;54385;53.516;49.456;2023-06-24T11:15:01;29.54;23.27
67555;HTU21D;54385;53.516;49.456;2023-06-24T11:17:28;29.50;23.28
67555;HTU21D;54385;53.516;49.456;2023-06-24T11:19:57;29.48;23.31
67555;HTU21D;54385;53.516;49.456;2023-06-24T11:22:25;29.46;23.29
67555;HTU21D;54385;53.516;49.456;2023-06-24T11:24:54;29.47;23.32
67555;HTU21D;54385;53.516;49.456;2023-06-24T11:27:31;29.51;23.27
67555;HTU21D;54385;53.516;49.456;2023-06-24T11:29:59;29.54;23.15
67555;HTU21D;54385;53.516;49.456;2023-06-24T11:32:42;29.57;23.22
67555;HTU21D;54385;53.516;49.456;2023-06-24T11:35:17;29.57;23.14
67555;HTU21D;54385;53.516;49.456;2023-06-24T11:37:47;29.53;23.17
67555;HTU21D;54385;53.516;49.456;2023-06-24T11:40:18;29.45;23.28
67555;HTU21D;54385;53.516;49.456;2023-06-24T11:42:45;29.37;23.38
67555;HTU21D;54385;53.516;49.456;2023-06-24T11:45:20;29.30;23.54
67555;HTU21D;54385;53.516;49.456;2023-06-24T11:47:48;29.23;23.54
67555;HTU21D;54385;53.516;49.456;2023-06-24T11:50:17;29.20;23.60
67555;HTU21D;54385;53.516;49.456;2023-06-24T11:52:47;29.16;23.62
67555;HTU21D;54385;53.516;49.456;2023-06-24T11:55:24;29.08;23.80
67555;HTU21D;54385;53.516;49.456;2023-06-24T11:57:55;29.03;23.79
67555;HTU21D;54385;53.516;49.456;2023-06-24T12:00:32;28.98;23.82
67555;HTU21D;54385;53.516;49.456;2023-06-24T12:03:05;28.89;24.00
67555;HTU21D;54385;53.516;49.456;2023-06-24T12:05:35;28.76;24.11
67555;HTU21D;54385;53.516;49.456;2023-06-24T12:08:10;28.61;24.27
67555;HTU21D;54385;53.516;49.456;2023-06-24T12:10:39;28.55;24.40
67555;HTU21D;54385;53.516;49.456;2023-06-24T12:13:06;28.53;24.40
67555;HTU21D;54385;53.516;49.456;2023-06-24T12:15:40;28.59;24.32
67555;HTU21D;54385;53.516;49.456;2023-06-24T12:18:12;28.67;24.17
67555;HTU21D;54385;53.516;49.456;2023-06-24T12:20:39;28.72;24.09
67555;HTU21D;54385;53.516;49.456;2023-06-24T12:23:08;28.73;24.10
67555;HTU21D;54385;53.516;49.456;2023-06-24T12:25:35;28.68;24.14
67555;HTU21D;54385;53.516;49.456;2023-06-24T12:28:05;28.58;24.24
67555;HTU21D;54385;53.516;49.456;2023-06-24T12:30:33;28.50;24.35
67555;HTU21D;54385;53.516;49.456;2023-06-24T12:33:11;28.35;24.53
67555;HTU21D;54385;53.516;49.456;2023-06-24T12:35:37;28.20;24.71
67555;HTU21D;54385;53.516;49.456;2023-06-24T12:38:04;28.09;24.87
67555;HTU21D;54385;53.516;49.456;2023-06-24T12:40:30;28.02;24.94
67555;HTU21D;54385;53.516;49.456;2023-06-24T12:42:57;27.95;25.01
67555;HTU21D;54385;53.516;49.456;2023-06-24T12:45:26;27.86;25.07
67555;HTU21D;54385;53.516;49.456;2023-06-24T12:47:55;27.73;25.26
67555;HTU21D;54385;53.516;49.456;2023-06-24T12:50:22;27.55;25.56
67555;HTU21D;54385;53.516;49.456;2023-06-24T12:52:48;27.39;25.76
67555;HTU21D;54385;53.516;49.456;2023-06-24T12:55:15;27.23;26.01
67555;HTU21D;54385;53.516;49.456;2023-06-24T12:57:41;27.15;26.13
67555;HTU21D;54385;53.516;49.456;2023-06-24T13:00:08;27.09;26.23
67555;HTU21D;54385;53.516;49.456;2023-06-24T13:02:35;27.01;26.35
67555;HTU21D;54385;53.516;49.456;2023-06-24T13:05:02;26.98;26.38
67555;HTU21D;54385;53.516;49.456;2023-06-24T13:07:29;26.93;26.48
67555;HTU21D;54385;53.516;49.456;2023-06-24T13:09:56;26.87;26.55
67555;HTU21D;54385;53.516;49.456;2023-06-24T13:12:22;26.77;26.72
67555;HTU21D;54385;53.516;49.456;2023-06-24T13:14:49;26.66;26.90
67555;HTU21D;54385;53.516;49.456;2023-06-24T13:17:15;26.54;27.05
67555;HTU21D;54385;53.516;49.456;2023-06-24T13:19:45;26.37;27.30
67555;HTU21D;54385;53.516;49.456;2023-06-24T13:22:15;26.18;27.58
67555;HTU21D;54385;53.516;49.456;2023-06-24T13:24:41;25.98;27.88
67555;HTU21D;54385;53.516;49.456;2023-06-24T13:27:08;25.80;28.18
67555;HTU21D;54385;53.516;49.456;2023-06-24T13:29:34;25.65;28.44
67555;HTU21D;54385;53.516;49.456;2023-06-24T13:32:01;25.50;28.68
67555;HTU21D;54385;53.516;49.456;2023-06-24T13:34:27;25.37;28.90
67555;HTU21D;54385;53.516;49.456;2023-06-24T13:36:54;25.28;29.07
67555;HTU21D;54385;53.516;49.456;2023-06-24T13:39:20;25.15;29.27
67555;HTU21D;54385;53.516;49.456;2023-06-24T13:41:50;25.04;29.47
67555;HTU21D;54385;53.516;49.456;2023-06-24T13:44:16;24.93;29.63
67555;HTU21D;54385;53.516;49.456;2023-06-24T13:46:43;24.84;29.81
67555;HTU21D;54385;53.516;49.456;2023-06-24T13:49:10;24.75;30.00
67555;HTU21D;54385;53.516;49.456;2023-06-24T13:51:36;24.64;30.14
67555;HTU21D;54385;53.516;49.456;2023-06-24T13:54:03;24.57;30.29
67555;HTU21D;54385;53.516;49.456;2023-06-24T13:56:33;24.49;30.45
67555;HTU21D;54385;53.516;49.456;2023-06-24T13:58:59;24.43;30.58
67555;HTU21D;54385;53.516;49.456;2023-06-24T14:01:26;24.38;30.69
67555;HTU21D;54385;53.516;49.456;2023-06-24T14:03:55;24.31;30.81
67555;HTU21D;54385;53.516;49.456;2023-06-24T14:06:22;24.25;30.95
67555;HTU21D;54385;53.516;49.456;2023-06-24T14:08:50;24.17;31.08
67555;HTU21D;54385;53.516;49.456;2023-06-24T14:11:17;24.10;31.21
67555;HTU21D;54385;53.516;49.456;2023-06-24T14:13:44;24.03;31.40
67555;HTU21D;54385;53.516;49.456;2023-06-24T14:16:11;23.92;31.57
67555;HTU21D;54385;53.516;49.456;2023-06-24T14:18:38;23.88;31.73
67555;HTU21D;54385;53.516;49.456;2023-06-24T14:21:06;23.81;31.91
67555;HTU21D;54385;53.516;49.456;2023-06-24T14:23:33;23.71;32.07
67555;HTU21D;54385;53.516;49.456;2023-06-24T14:26:03;23.65;32.24
67555;HTU21D;54385;53.516;49.456;2023-06-24T14:28:29;23.58;32.40
67555;HTU21D;54385;53.516;49.456;2023-06-24T14:30:56;23.51;32.56
67555;HTU21D;54385;53.516;49.456;2023-06-24T14:33:22;23.45;32.71
67555;HTU21D;54385;53.516;49.456;2023-06-24T14:35:49;23.38;32.92
67555;HTU21D;54385;53.516;49.456;2023-06-24T14:38:19;23.29;33.21
67555;HTU21D;54385;53.516;49.456;2023-06-24T14:40:46;23.22;33.29
67555;HTU21D;54385;53.516;49.456;2023-06-24T14:43:42;23.14;33.49
67555;HTU21D;54385;53.516;49.456;2023-06-24T14:46:08;23.09;33.62
67555;HTU21D;54385;53.516;49.456;2023-06-24T14:48:35;23.05;33.73
67555;HTU21D;54385;53.516;49.456;2023-06-24T14:51:02;23.00;33.83
67555;HTU21D;54385;53.516;49.456;2023-06-24T14:53:28;22.95;33.96
67555;HTU21D;54385;53.516;49.456;2023-06-24T14:55:55;22.90;34.08
67555;HTU21D;54385;53.516;49.456;2023-06-24T14:58:21;22.83;34.23
67555;HTU21D;54385;53.516;49.456;2023-06-24T15:00:47;22.77;34.35
67555;HTU21D;54385;53.516;49.456;2023-06-24T15:03:14;22.73;34.48
67555;HTU21D;54385;53.516;49.456;2023-06-24T15:05:40;22.69;34.56
67555;HTU21D;54385;53.516;49.456;2023-06-24T15:08:16;22.64;34.66
67555;HTU21D;54385;53.516;49.456;2023-06-24T15:10:42;22.63;34.75
67555;HTU21D;54385;53.516;49.456;2023-06-24T15:13:09;22.60;34.81
67555;HTU21D;54385;53.516;49.456;2023-06-24T15:15:35;22.58;34.85
67555;HTU21D;54385;53.516;49.456;2023-06-24T15:18:02;22.55;34.92
67555;HTU21D;54385;53.516;49.456;2023-06-24T15:20:29;22.53;34.98
67555;HTU21D;54385;53.516;49.456;2023-06-24T15:22:55;22.50;35.04
67555;HTU21D;54385;53.516;49.456;2023-06-24T15:25:22;22.48;35.11